createdAt,value
2018-09-19T00:01:06.836Z,20.50
2018-09-19T00:03:35.236Z,20.50
2018-09-19T00:06:03.565Z,20.40
2018-09-19T00:08:31.977Z,20.30
2018-09-19T00:11:00.334Z,20.30
2018-09-19T00:13:28.670Z,20.20
2018-09-19T00:15:57.003Z,20.20
2018-09-19T00:18:25.350Z,20.10
2018-09-19T00:20:53.787Z,20.10
2018-09-19T00:23:22.304Z,20.10
2018-09-19T00:25:50.633Z,20.00
2018-09-19T00:28:19.009Z,20.00
2018-09-19T00:30:47.336Z,20.00
2018-09-19T00:33:15.730Z,19.90
2018-09-19T00:35:44.008Z,19.90
2018-09-19T00:38:13.219Z,19.90
2018-09-19T00:40:50.287Z,19.80
2018-09-19T00:43:18.650Z,19.70
2018-09-19T00:45:46.987Z,19.70
2018-09-19T00:48:15.326Z,19.60
2018-09-19T00:50:43.699Z,19.60
2018-09-19T00:53:12.056Z,19.60
2018-09-19T00:55:40.382Z,19.50
2018-09-19T00:58:08.735Z,19.50
2018-09-19T01:00:37.066Z,19.40
2018-09-19T01:03:05.459Z,19.40
2018-09-19T01:05:33.792Z,19.40
2018-09-19T01:08:02.134Z,19.30
2018-09-19T01:10:30.499Z,19.20
2018-09-19T01:12:58.885Z,19.20
2018-09-19T01:15:27.198Z,19.20
2018-09-19T01:17:55.544Z,19.10
2018-09-19T01:20:23.971Z,19.10
2018-09-19T01:22:52.329Z,19.10
2018-09-19T01:25:20.644Z,19.10
2018-09-19T01:27:49.017Z,19.10
2018-09-19T01:30:17.342Z,19.10
2018-09-19T01:32:45.677Z,19.10
2018-09-19T01:35:14.019Z,19.10
2018-09-19T01:37:42.361Z,19.00
2018-09-19T01:40:10.684Z,19.00
2018-09-19T01:42:39.012Z,19.00
2018-09-19T01:45:07.355Z,18.90
2018-09-19T01:47:35.753Z,18.90
2018-09-19T01:50:04.108Z,18.90
2018-09-19T01:52:32.419Z,18.80
2018-09-19T01:55:00.755Z,18.80
2018-09-19T01:57:29.087Z,18.70
2018-09-19T01:59:57.427Z,18.70
2018-09-19T02:02:25.754Z,18.70
2018-09-19T02:04:54.110Z,18.60
2018-09-19T02:07:22.527Z,18.60
2018-09-19T02:09:50.875Z,18.60
2018-09-19T02:12:19.244Z,18.60
2018-09-19T02:14:47.582Z,18.50
2018-09-19T02:17:15.904Z,18.50
2018-09-19T02:19:44.230Z,18.40
2018-09-19T02:22:12.631Z,18.40
2018-09-19T02:24:40.950Z,18.40
2018-09-19T02:27:09.278Z,18.40
2018-09-19T02:29:37.762Z,18.30
2018-09-19T02:32:06.334Z,18.30
2018-09-19T02:34:34.676Z,18.20
2018-09-19T02:37:03.062Z,18.20
2018-09-19T02:39:31.399Z,18.10
2018-09-19T02:41:59.734Z,18.10
2018-09-19T02:44:28.109Z,18.10
2018-09-19T02:46:56.428Z,18.10
2018-09-19T02:49:24.777Z,18.00
2018-09-19T02:51:57.592Z,18.00
2018-09-19T02:54:27.242Z,18.00
2018-09-19T02:56:55.568Z,18.00
2018-09-19T02:59:23.958Z,18.00
2018-09-19T03:01:52.240Z,18.00
2018-09-19T03:04:20.630Z,18.00
2018-09-19T03:06:48.986Z,18.00
2018-09-19T03:09:17.346Z,18.00
2018-09-19T03:11:45.686Z,18.00
2018-09-19T03:14:14.022Z,18.00
2018-09-19T03:16:42.467Z,18.00
2018-09-19T03:19:10.800Z,18.00
2018-09-19T03:21:39.125Z,17.90
2018-09-19T03:24:07.467Z,17.90
2018-09-19T03:26:35.808Z,17.80
2018-09-19T03:29:04.143Z,17.80
2018-09-19T03:31:32.466Z,17.80
2018-09-19T03:34:00.803Z,17.80
2018-09-19T03:36:29.119Z,17.80
2018-09-19T03:38:57.458Z,17.80
2018-09-19T03:41:25.901Z,17.80
2018-09-19T03:43:54.220Z,17.70
2018-09-19T03:46:22.581Z,17.70
2018-09-19T03:48:50.974Z,17.70
2018-09-19T03:51:19.409Z,17.70
2018-09-19T03:53:47.847Z,17.70
2018-09-19T03:56:16.259Z,17.70
2018-09-19T03:58:44.624Z,17.70
2018-09-19T04:01:13.009Z,17.70
2018-09-19T04:03:41.348Z,17.70
2018-09-19T04:06:09.788Z,17.70
2018-09-19T04:08:38.214Z,17.70
2018-09-19T04:11:06.725Z,17.70
2018-09-19T04:13:35.087Z,17.70
2018-09-19T04:16:03.490Z,17.70
2018-09-19T04:18:31.840Z,17.70
2018-09-19T04:21:00.249Z,17.70
2018-09-19T04:23:28.594Z,17.70
2018-09-19T04:25:57.015Z,17.70
2018-09-19T04:28:25.353Z,17.70
2018-09-19T04:30:53.731Z,17.70
2018-09-19T04:33:22.095Z,17.70
2018-09-19T04:35:50.475Z,17.60
2018-09-19T04:38:18.826Z,17.60
2018-09-19T04:40:47.175Z,17.60
2018-09-19T04:43:15.471Z,17.60
2018-09-19T04:45:43.791Z,17.50
2018-09-19T04:48:13.133Z,17.50
2018-09-19T04:50:41.514Z,17.50
2018-09-19T04:53:09.884Z,17.50
2018-09-19T04:55:38.393Z,17.40
2018-09-19T04:58:06.757Z,17.40
2018-09-19T05:00:35.110Z,17.40
2018-09-19T05:03:03.505Z,17.40
2018-09-19T05:05:31.870Z,17.40
2018-09-19T05:08:00.284Z,17.40
2018-09-19T05:10:29.429Z,17.40
2018-09-19T05:12:57.763Z,17.40
2018-09-19T05:15:26.140Z,17.40
2018-09-19T05:17:55.948Z,17.40
2018-09-19T05:20:24.537Z,17.40
2018-09-19T05:22:53.412Z,17.40
2018-09-19T05:25:21.809Z,17.40
2018-09-19T05:27:50.159Z,17.40
2018-09-19T05:30:18.532Z,17.40
2018-09-19T05:32:46.892Z,17.40
2018-09-19T05:35:15.264Z,17.40
2018-09-19T05:37:43.610Z,17.30
2018-09-19T05:40:11.966Z,17.30
2018-09-19T05:42:40.445Z,17.30
2018-09-19T05:45:08.809Z,17.30
2018-09-19T05:47:37.172Z,17.30
2018-09-19T05:50:05.538Z,17.30
2018-09-19T05:52:33.924Z,17.30
2018-09-19T05:55:02.260Z,17.30
2018-09-19T05:57:30.622Z,17.30
2018-09-19T05:59:58.968Z,17.20
2018-09-19T06:02:27.331Z,17.30
2018-09-19T06:04:55.820Z,17.30
2018-09-19T06:07:24.141Z,17.40
2018-09-19T06:09:52.504Z,17.50
2018-09-19T06:12:21.785Z,17.50
2018-09-19T06:14:50.239Z,17.60
2018-09-19T06:17:19.500Z,17.70
2018-09-19T06:19:47.945Z,17.80
2018-09-19T06:22:16.326Z,17.80
2018-09-19T06:24:44.664Z,17.80
2018-09-19T06:27:13.055Z,17.80
2018-09-19T06:29:41.395Z,17.80
2018-09-19T06:32:09.773Z,17.70
2018-09-19T06:34:38.151Z,17.80
2018-09-19T06:37:06.548Z,17.80
2018-09-19T06:39:34.912Z,17.90
2018-09-19T06:42:03.359Z,17.90
2018-09-19T06:44:31.745Z,18.00
2018-09-19T06:47:00.118Z,18.00
2018-09-19T06:49:28.473Z,18.00
2018-09-19T06:51:56.897Z,18.00
2018-09-19T06:54:25.205Z,18.10
2018-09-19T06:56:53.601Z,18.10
2018-09-19T06:59:22.188Z,18.10
2018-09-19T07:01:50.587Z,18.10
2018-09-19T07:04:18.935Z,18.20
2018-09-19T07:06:47.295Z,18.20
2018-09-19T07:09:15.635Z,18.30
2018-09-19T07:11:44.024Z,18.40
2018-09-19T07:14:12.376Z,18.50
2018-09-19T07:16:40.724Z,18.60
2018-09-19T07:19:09.118Z,18.60
2018-09-19T07:21:37.471Z,18.80
2018-09-19T07:24:05.837Z,18.80
2018-09-19T07:26:34.196Z,18.90
2018-09-19T07:29:02.559Z,19.10
2018-09-19T07:31:30.930Z,19.20
2018-09-19T07:33:59.303Z,19.20
2018-09-19T07:36:27.638Z,19.40
2018-09-19T07:38:56.014Z,19.40
2018-09-19T07:41:24.382Z,19.50
2018-09-19T07:43:52.854Z,19.60
2018-09-19T07:46:21.211Z,19.70
2018-09-19T07:48:49.589Z,19.80
2018-09-19T07:51:17.947Z,19.90
2018-09-19T07:53:46.344Z,20.00
2018-09-19T07:56:14.698Z,20.10
2018-09-19T07:58:43.119Z,20.10
2018-09-19T08:01:11.566Z,20.30
2018-09-19T08:03:39.839Z,20.40
2018-09-19T08:06:08.332Z,20.40
2018-09-19T08:08:36.696Z,20.50
2018-09-19T08:11:05.063Z,20.60
2018-09-19T08:13:33.448Z,20.70
2018-09-19T08:16:01.772Z,20.80
2018-09-19T08:18:30.187Z,20.90
2018-09-19T08:20:58.542Z,21.10
2018-09-19T08:23:27.104Z,21.10
2018-09-19T08:25:55.425Z,21.20
2018-09-19T08:28:23.787Z,21.30
2018-09-19T08:30:52.143Z,21.40
2018-09-19T08:33:20.539Z,21.50
2018-09-19T08:35:48.952Z,21.60
2018-09-19T08:38:17.311Z,21.60
2018-09-19T08:40:45.667Z,21.70
2018-09-19T08:43:14.061Z,21.80
2018-09-19T08:45:42.574Z,21.90
2018-09-19T08:48:10.935Z,22.00
2018-09-19T08:50:39.353Z,22.10
2018-09-19T08:53:07.734Z,22.20
2018-09-19T08:55:36.058Z,22.20
2018-09-19T08:58:04.464Z,22.30
2018-09-19T09:00:32.827Z,22.50
2018-09-19T09:03:01.220Z,22.60
2018-09-19T09:05:29.600Z,22.70
2018-09-19T09:07:57.989Z,22.80
2018-09-19T09:10:26.387Z,22.90
2018-09-19T09:12:54.777Z,23.10
2018-09-19T09:15:23.204Z,23.20
2018-09-19T09:17:51.639Z,23.20
2018-09-19T09:20:19.993Z,23.30
2018-09-19T09:22:48.523Z,23.40
2018-09-19T09:25:16.920Z,23.40
2018-09-19T09:27:45.286Z,23.50
2018-09-19T09:30:13.694Z,23.50
2018-09-19T09:32:42.044Z,23.60
2018-09-19T09:35:10.394Z,23.60
2018-09-19T09:37:38.733Z,23.70
2018-09-19T09:40:07.098Z,23.80
2018-09-19T09:42:35.443Z,23.90
2018-09-19T09:45:03.825Z,24.00
2018-09-19T09:47:32.245Z,24.10
2018-09-19T09:50:00.597Z,24.30
2018-09-19T09:52:28.932Z,24.50
2018-09-19T09:54:57.281Z,24.70
2018-09-19T09:57:25.617Z,24.80
2018-09-19T09:59:53.973Z,24.90
2018-09-19T10:02:22.304Z,25.10
2018-09-19T10:04:50.773Z,25.10
2018-09-19T10:07:19.100Z,25.20
2018-09-19T10:09:47.445Z,25.20
2018-09-19T10:12:15.809Z,25.30
2018-09-19T10:14:44.151Z,25.40
2018-09-19T10:17:12.488Z,25.40
2018-09-19T10:19:40.842Z,25.40
2018-09-19T10:22:09.194Z,25.50
2018-09-19T10:24:37.519Z,25.70
2018-09-19T10:27:06.099Z,25.80
2018-09-19T10:29:34.451Z,25.90
2018-09-19T10:32:02.794Z,25.90
2018-09-19T10:34:31.112Z,26.00
2018-09-19T10:36:59.464Z,26.20
2018-09-19T10:39:27.790Z,26.30
2018-09-19T10:41:56.142Z,26.20
2018-09-19T10:44:24.478Z,26.10
2018-09-19T10:46:52.836Z,26.00
2018-09-19T10:49:21.227Z,26.00
2018-09-19T10:51:49.555Z,26.00
2018-09-19T10:54:17.883Z,26.10
2018-09-19T10:56:46.299Z,26.20
2018-09-19T10:59:14.591Z,26.40
2018-09-19T11:01:42.947Z,26.40
2018-09-19T11:04:11.267Z,26.50
2018-09-19T11:06:39.625Z,26.70
2018-09-19T11:09:09.941Z,26.80
2018-09-19T11:11:38.848Z,26.90
2018-09-19T11:14:07.458Z,27.00
2018-09-19T11:16:35.821Z,27.10
2018-09-19T11:19:04.139Z,27.20
2018-09-19T11:21:32.496Z,27.30
2018-09-19T11:24:00.836Z,27.40
2018-09-19T11:26:29.241Z,27.40
2018-09-19T11:28:57.577Z,27.50
2018-09-19T11:31:25.950Z,27.50
2018-09-19T11:33:54.305Z,27.70
2018-09-19T11:36:22.644Z,27.80
2018-09-19T11:38:51.918Z,27.90
2018-09-19T11:41:20.322Z,27.90
2018-09-19T11:43:48.736Z,28.00
2018-09-19T11:46:17.540Z,28.10
2018-09-19T11:48:46.152Z,28.10
2018-09-19T11:51:15.447Z,28.10
2018-09-19T11:53:43.812Z,28.10
2018-09-19T11:56:12.152Z,28.20
2018-09-19T11:58:40.611Z,28.10
2018-09-19T12:01:08.960Z,28.10
2018-09-19T12:03:37.301Z,28.10
2018-09-19T12:06:05.654Z,28.10
2018-09-19T12:08:33.992Z,28.00
2018-09-19T12:11:02.346Z,28.00
2018-09-19T12:13:30.804Z,28.20
2018-09-19T12:16:00.936Z,28.30
2018-09-19T12:18:29.894Z,28.30
2018-09-19T12:20:59.400Z,28.40
2018-09-19T12:23:30.166Z,28.50
2018-09-19T12:26:00.500Z,28.60
2018-09-19T12:28:31.572Z,28.60
2018-09-19T12:31:01.156Z,28.70
2018-09-19T12:33:30.033Z,28.70
2018-09-19T12:35:58.676Z,28.60
2018-09-19T12:38:27.504Z,28.50
2018-09-19T12:40:56.564Z,28.50
2018-09-19T12:43:27.996Z,28.60
2018-09-19T12:45:59.036Z,28.70
2018-09-19T12:48:28.545Z,28.60
2018-09-19T12:50:58.898Z,28.60
2018-09-19T12:53:28.433Z,28.70
2018-09-19T12:55:58.124Z,28.70
2018-09-19T12:58:27.197Z,28.60
2018-09-19T13:00:56.332Z,28.50
2018-09-19T13:03:25.274Z,28.40
2018-09-19T13:05:54.124Z,28.30
2018-09-19T13:08:23.925Z,28.20
2018-09-19T13:10:53.242Z,28.00
2018-09-19T13:13:23.821Z,27.90
2018-09-19T13:15:53.566Z,27.80
2018-09-19T13:18:22.656Z,27.80
2018-09-19T13:20:51.118Z,27.80
2018-09-19T13:23:19.444Z,27.80
2018-09-19T13:25:47.796Z,27.80
2018-09-19T13:28:20.308Z,27.80
2018-09-19T13:30:51.334Z,27.90
2018-09-19T13:33:20.191Z,27.90
2018-09-19T13:35:49.510Z,27.80
2018-09-19T13:38:20.879Z,27.80
2018-09-19T13:40:51.560Z,27.90
2018-09-19T13:43:20.485Z,28.10
2018-09-19T13:45:50.443Z,28.40
2018-09-19T13:48:21.205Z,28.70
2018-09-19T13:51:02.824Z,29.00
2018-09-19T13:53:32.124Z,29.10
2018-09-19T13:56:01.180Z,29.10
2018-09-19T13:58:29.985Z,29.20
2018-09-19T14:00:58.738Z,29.40
2018-09-19T14:03:28.096Z,29.60
2018-09-19T14:05:57.742Z,29.60
2018-09-19T14:08:26.137Z,29.70
2018-09-19T14:10:54.492Z,29.60
2018-09-19T14:13:22.847Z,29.40
2018-09-19T14:15:51.184Z,29.40
2018-09-19T14:18:19.528Z,29.70
2018-09-19T14:20:47.916Z,29.70
2018-09-19T14:23:16.285Z,29.90
2018-09-19T14:25:44.668Z,30.10
2018-09-19T14:28:13.102Z,30.10
2018-09-19T14:30:41.551Z,30.30
2018-09-19T14:33:09.941Z,30.30
2018-09-19T14:35:38.343Z,30.30
2018-09-19T14:38:06.737Z,30.20
2018-09-19T14:40:38.399Z,30.00
2018-09-19T14:43:07.239Z,29.90
2018-09-19T14:45:35.785Z,30.10
2018-09-19T14:48:04.263Z,30.10
2018-09-19T14:50:32.717Z,30.30
2018-09-19T14:53:01.094Z,30.50
2018-09-19T14:55:29.458Z,30.70
2018-09-19T14:57:57.798Z,31.00
2018-09-19T15:00:26.168Z,31.30
2018-09-19T15:02:54.484Z,31.60
2018-09-19T15:05:25.240Z,31.90
2018-09-19T15:07:54.134Z,32.20
2018-09-19T15:10:22.530Z,32.60
2018-09-19T15:12:52.721Z,32.90
2018-09-19T15:15:21.314Z,33.20
2018-09-19T15:17:49.673Z,33.60
2018-09-19T15:20:18.045Z,33.80
2018-09-19T15:22:46.662Z,33.70
2018-09-19T15:25:16.053Z,33.50
2018-09-19T15:27:44.437Z,33.30
2018-09-19T15:30:14.392Z,33.10
2018-09-19T15:32:43.011Z,32.90
2018-09-19T15:35:11.573Z,32.70
2018-09-19T15:37:40.589Z,32.80
2018-09-19T15:40:09.597Z,32.90
2018-09-19T15:42:37.977Z,33.10
2018-09-19T15:45:06.660Z,33.20
2018-09-19T15:47:36.803Z,33.30
2018-09-19T15:50:05.567Z,33.30
2018-09-19T15:52:33.945Z,33.40
2018-09-19T15:55:02.992Z,33.30
2018-09-19T15:57:32.185Z,33.20
2018-09-19T16:00:00.640Z,33.20
2018-09-19T16:02:30.046Z,33.20
2018-09-19T16:04:58.628Z,33.20
2018-09-19T16:07:27.276Z,33.20
2018-09-19T16:09:56.649Z,32.90
2018-09-19T16:12:25.027Z,32.70
2018-09-19T16:14:53.424Z,32.40
2018-09-19T16:17:24.421Z,32.10
2018-09-19T16:19:53.702Z,31.90
2018-09-19T16:22:22.304Z,31.60
2018-09-19T16:24:51.874Z,31.30
2018-09-19T16:27:21.480Z,31.10
2018-09-19T16:29:50.863Z,30.80
2018-09-19T16:32:19.922Z,30.50
2018-09-19T16:34:51.750Z,30.20
2018-09-19T16:37:22.414Z,30.00
2018-09-19T16:39:53.935Z,29.90
2018-09-19T16:42:22.974Z,29.80
2018-09-19T16:44:52.388Z,29.60
2018-09-19T16:47:21.790Z,29.40
2018-09-19T16:49:52.817Z,29.30
2018-09-19T16:52:22.206Z,29.20
2018-09-19T16:54:52.459Z,29.10
2018-09-19T16:57:22.417Z,29.00
2018-09-19T16:59:53.596Z,28.90
2018-09-19T17:02:23.059Z,28.80
2018-09-19T17:04:53.994Z,28.80
2018-09-19T17:07:23.366Z,28.70
2018-09-19T17:09:52.706Z,28.60
2018-09-19T17:12:23.173Z,28.40
2018-09-19T17:14:52.564Z,28.30
2018-09-19T17:17:22.856Z,28.20
2018-09-19T17:19:52.344Z,28.00
2018-09-19T17:22:20.929Z,27.90
2018-09-19T17:24:51.124Z,27.80
2018-09-19T17:27:21.001Z,27.70
2018-09-19T17:29:51.948Z,27.60
2018-09-19T17:32:21.648Z,27.50
2018-09-19T17:34:51.284Z,27.40
2018-09-19T17:37:20.532Z,27.30
2018-09-19T17:39:49.200Z,27.20
2018-09-19T17:42:18.736Z,27.10
2018-09-19T17:44:47.706Z,27.00
2018-09-19T17:47:16.381Z,27.00
2018-09-19T17:49:46.019Z,26.90
2018-09-19T17:52:15.175Z,26.80
2018-09-19T17:54:44.376Z,26.70
2018-09-19T17:57:13.288Z,26.70
2018-09-19T17:59:42.861Z,26.60
2018-09-19T18:02:12.375Z,26.60
2018-09-19T18:04:43.043Z,26.50
2018-09-19T18:07:11.411Z,26.40
2018-09-19T18:09:39.757Z,26.30
2018-09-19T18:12:08.123Z,26.30
2018-09-19T18:14:36.452Z,26.30
2018-09-19T18:17:04.829Z,26.20
2018-09-19T18:19:35.123Z,26.10
2018-09-19T18:22:03.476Z,26.10
2018-09-19T18:24:32.807Z,26.00
2018-09-19T18:27:01.222Z,26.00
2018-09-19T18:29:30.671Z,25.90
2018-09-19T18:31:59.155Z,25.80
2018-09-19T18:34:27.492Z,25.80
2018-09-19T18:36:55.836Z,25.80
2018-09-19T18:39:24.167Z,25.70
2018-09-19T18:41:52.515Z,25.60
2018-09-19T18:44:20.857Z,25.60
2018-09-19T18:46:49.400Z,25.50
2018-09-19T18:49:17.745Z,25.50
2018-09-19T18:51:46.092Z,25.40
2018-09-19T18:54:18.639Z,25.40
2018-09-19T18:56:46.992Z,25.30
2018-09-19T18:59:15.341Z,25.30
2018-09-19T19:01:45.641Z,25.20
2018-09-19T19:04:16.632Z,25.20
2018-09-19T19:06:48.533Z,25.10
2018-09-19T19:09:19.987Z,25.00
2018-09-19T19:11:49.825Z,25.00
2018-09-19T19:14:22.038Z,25.00
2018-09-19T19:16:51.779Z,25.00
2018-09-19T19:19:22.188Z,24.90
2018-09-19T19:21:52.422Z,24.90
2018-09-19T19:24:21.028Z,24.90
2018-09-19T19:26:50.539Z,24.80
2018-09-19T19:29:21.756Z,24.70
2018-09-19T19:31:52.500Z,24.60
2018-09-19T19:34:23.014Z,24.60
2018-09-19T19:36:54.516Z,24.60
2018-09-19T19:39:22.840Z,24.50
2018-09-19T19:41:51.201Z,24.40
2018-09-19T19:44:19.533Z,24.30
2018-09-19T19:46:47.870Z,24.30
2018-09-19T19:49:16.215Z,24.30
2018-09-19T19:51:44.544Z,24.20
2018-09-19T19:54:12.887Z,24.10
2018-09-19T19:56:41.202Z,24.10
2018-09-19T19:59:09.621Z,24.00
2018-09-19T20:01:37.912Z,24.00
2018-09-19T20:04:06.252Z,24.00
2018-09-19T20:06:34.583Z,23.90
2018-09-19T20:09:03.110Z,23.80
2018-09-19T20:11:31.460Z,23.80
2018-09-19T20:13:59.935Z,23.70
2018-09-19T20:16:28.316Z,23.70
2018-09-19T20:18:56.611Z,23.60
2018-09-19T20:21:24.945Z,23.60
2018-09-19T20:23:53.285Z,23.50
2018-09-19T20:26:21.627Z,23.40
2018-09-19T20:28:49.987Z,23.40
2018-09-19T20:31:18.343Z,23.40
2018-09-19T20:33:46.711Z,23.30
2018-09-19T20:36:15.035Z,23.30
2018-09-19T20:38:43.399Z,23.30
2018-09-19T20:41:11.782Z,23.20
2018-09-19T20:43:40.094Z,23.20
2018-09-19T20:46:08.708Z,23.20
2018-09-19T20:48:37.069Z,23.20
2018-09-19T20:51:05.469Z,23.10
2018-09-19T20:53:33.921Z,23.10
2018-09-19T20:56:02.259Z,23.10
2018-09-19T20:58:30.583Z,23.00
2018-09-19T21:00:58.923Z,23.00
2018-09-19T21:03:27.227Z,22.90
2018-09-19T21:05:55.575Z,22.80
2018-09-19T21:08:23.899Z,22.80
2018-09-19T21:10:52.259Z,22.70
2018-09-19T21:13:20.588Z,22.60
2018-09-19T21:15:49.997Z,22.60
2018-09-19T21:18:18.312Z,22.50
2018-09-19T21:20:46.660Z,22.50
2018-09-19T21:23:14.983Z,22.50
2018-09-19T21:25:43.307Z,22.50
2018-09-19T21:28:11.620Z,22.50
2018-09-19T21:30:39.955Z,22.50
2018-09-19T21:33:08.286Z,22.40
2018-09-19T21:35:36.613Z,22.40
2018-09-19T21:38:04.960Z,22.30
2018-09-19T21:40:33.308Z,22.30
2018-09-19T21:43:01.620Z,22.30
2018-09-19T21:45:30.000Z,22.30
2018-09-19T21:47:58.303Z,22.20
2018-09-19T21:50:26.643Z,22.20
2018-09-19T21:52:54.963Z,22.20
2018-09-19T21:55:23.621Z,22.20
2018-09-19T21:57:51.983Z,22.10
2018-09-19T22:00:20.311Z,22.10
2018-09-19T22:02:48.624Z,22.10
2018-09-19T22:05:16.981Z,22.00
2018-09-19T22:07:45.295Z,22.00
2018-09-19T22:10:13.668Z,21.90
2018-09-19T22:12:41.979Z,21.90
2018-09-19T22:15:10.287Z,21.90
2018-09-19T22:17:38.615Z,21.80
2018-09-19T22:20:06.927Z,21.80
2018-09-19T22:22:35.251Z,21.70
2018-09-19T22:25:03.603Z,21.70
2018-09-19T22:27:31.953Z,21.60
2018-09-19T22:30:00.267Z,21.60
2018-09-19T22:32:28.598Z,21.50
2018-09-19T22:34:57.002Z,21.50
2018-09-19T22:37:25.352Z,21.40
2018-09-19T22:39:53.674Z,21.40
2018-09-19T22:42:22.015Z,21.30
2018-09-19T22:44:50.331Z,21.30
2018-09-19T22:47:18.671Z,21.20
2018-09-19T22:49:46.990Z,21.20
2018-09-19T22:52:15.366Z,21.20
2018-09-19T22:54:43.686Z,21.10
2018-09-19T22:57:12.027Z,21.10
2018-09-19T22:59:40.343Z,21.00
2018-09-19T23:02:08.688Z,21.00
2018-09-19T23:04:37.296Z,21.00
2018-09-19T23:07:05.716Z,21.00
2018-09-19T23:09:34.040Z,21.00
2018-09-19T23:12:02.399Z,21.00
2018-09-19T23:14:30.707Z,20.90
2018-09-19T23:16:59.044Z,20.90
2018-09-19T23:19:27.367Z,20.90
2018-09-19T23:21:55.706Z,20.80
2018-09-19T23:24:24.034Z,20.60
2018-09-19T23:26:52.360Z,20.50
2018-09-19T23:29:20.712Z,20.40
2018-09-19T23:31:49.044Z,20.40
2018-09-19T23:34:17.393Z,20.30
2018-09-19T23:36:45.848Z,20.20
2018-09-19T23:39:14.187Z,20.20
2018-09-19T23:41:42.515Z,20.20
2018-09-19T23:44:10.857Z,20.20
2018-09-19T23:46:39.258Z,20.20
2018-09-19T23:49:07.623Z,20.20
2018-09-19T23:51:35.967Z,20.10
2018-09-19T23:54:04.303Z,20.10
2018-09-19T23:56:32.625Z,20.10
2018-09-19T23:59:00.986Z,20.10
